Lebam, Washington
Current Conditions -  °F | °C
As of 6:55 AM on Thursday 30 Oct 2014 (Local Time) from KCLS Reporting Station
Overcast Overcast  
Wind Chill: 54°   Ceiling: 9500
Heat Index: 54°   Visibility: 10mi
Dew Point: 54°   Wind: 3mph
Humidity: 100%   Direction: 30°NNE
Pressure: 29.86"   Gusts: NA
Location:  46.56°N, 123.55°W
Report Text: KCLS 301355Z AUTO 03003KT 10SM FEW050 SCT080 OVC095 12/12 A2986 RMK AO2
Loading
Personal Weather Stations






























Interactive Weather Map
Tropical Storm Tracking
New forecast layout! Learn more

10-Day Weather Forecast

Advertisements
Track Severe Weather on mobile